Terminal Aerodrome Forecast
Issued by NWS

Home | Current Version | Previous Version | Text Only | Print | Product List | Glossary On
Versions: 1 2 3 4 5 6 7 8 9 10 11 12 13 14 15 16 17 18 19 20 21
000
FTUS46 KOTX 021726
TAFSFF
TAF
KSFF 021726Z 0218/0318 17004KT P6SM BKN015 OVC040
     FM022100 19006KT P6SM -RASN OVC015
     FM022300 18007KT 6SM -RA BR OVC010
     FM030600 18006KT 6SM BR OVC008
     FM031000 24004KT 6SM -DZ BKN008 OVC019=

USA.gov is the U.S. government's official web portal to all federal, state and local government web resources and services.